createdAt,value
2023-04-02T00:00:22.223Z,100.00
2023-04-02T00:02:59.815Z,100.00
2023-04-02T00:05:51.710Z,100.00
2023-04-02T00:08:26.795Z,100.00
2023-04-02T00:10:56.717Z,100.00
2023-04-02T00:13:32.877Z,100.00
2023-04-02T00:16:03.267Z,100.00
2023-04-02T00:18:31.857Z,100.00
2023-04-02T00:21:09.108Z,100.00
2023-04-02T00:23:37.793Z,100.00
2023-04-02T00:26:08.292Z,100.00
2023-04-02T00:28:37.737Z,100.00
2023-04-02T00:31:06.577Z,100.00
2023-04-02T00:33:34.582Z,100.00
2023-04-02T00:36:08.712Z,100.00
2023-04-02T00:38:36.859Z,100.00
2023-04-02T00:41:07.656Z,100.00
2023-04-02T00:43:39.601Z,100.00
2023-04-02T00:46:14.194Z,100.00
2023-04-02T00:48:46.551Z,100.00
2023-04-02T00:51:19.176Z,100.00
2023-04-02T00:53:49.105Z,100.00
2023-04-02T00:56:25.547Z,100.00
2023-04-02T00:58:57.024Z,100.00
2023-04-02T01:01:28.332Z,100.00
2023-04-02T01:03:59.136Z,100.00
2023-04-02T01:06:31.252Z,100.00
2023-04-02T01:09:15.858Z,100.00
2023-04-02T01:12:01.910Z,100.00
2023-04-02T01:14:44.176Z,100.00
2023-04-02T01:17:26.360Z,100.00
2023-04-02T01:20:37.835Z,100.00
2023-04-02T01:23:11.370Z,100.00
2023-04-02T01:25:46.707Z,100.00
2023-04-02T01:28:20.477Z,100.00
2023-04-02T01:30:53.675Z,100.00
2023-04-02T01:33:24.652Z,100.00
2023-04-02T01:35:57.959Z,100.00
2023-04-02T01:38:29.952Z,100.00
2023-04-02T01:41:04.978Z,100.00
2023-04-02T01:43:40.277Z,100.00
2023-04-02T01:46:26.810Z,100.00
2023-04-02T01:48:55.391Z,100.00
2023-04-02T01:51:29.452Z,100.00
2023-04-02T01:54:01.057Z,100.00
2023-04-02T01:56:30.383Z,100.00
2023-04-02T01:58:59.772Z,100.00
2023-04-02T02:01:36.825Z,100.00
2023-04-02T02:04:07.411Z,100.00
2023-04-02T02:06:36.098Z,100.00
2023-04-02T02:09:06.269Z,100.00
2023-04-02T02:11:36.617Z,100.00
2023-04-02T02:14:14.132Z,100.00
2023-04-02T02:16:46.796Z,100.00
2023-04-02T02:19:28.190Z,100.00
2023-04-02T02:21:59.272Z,100.00
2023-04-02T02:24:31.583Z,100.00
2023-04-02T02:27:22.430Z,100.00
2023-04-02T02:29:56.368Z,100.00
2023-04-02T02:32:30.062Z,100.00
2023-04-02T02:35:04.435Z,100.00
2023-04-02T02:37:38.153Z,100.00
2023-04-02T02:40:12.476Z,100.00
2023-04-02T02:42:45.403Z,100.00
2023-04-02T02:45:18.954Z,100.00
2023-04-02T02:47:50.777Z,100.00
2023-04-02T02:50:23.019Z,100.00
2023-04-02T02:52:54.940Z,100.00
2023-04-02T02:55:27.436Z,100.00
2023-04-02T02:58:12.628Z,100.00
2023-04-02T03:00:49.220Z,100.00
2023-04-02T03:03:23.141Z,100.00
2023-04-02T03:05:59.182Z,100.00
2023-04-02T03:08:33.450Z,100.00
2023-04-02T03:11:09.017Z,100.00
2023-04-02T03:13:39.999Z,100.00
2023-04-02T03:16:16.165Z,100.00
2023-04-02T03:18:52.846Z,100.00
2023-04-02T03:21:32.112Z,100.00
2023-04-02T03:24:04.384Z,100.00
2023-04-02T03:26:39.464Z,100.00
2023-04-02T03:29:14.908Z,100.00
2023-04-02T03:31:48.151Z,100.00
2023-04-02T03:34:25.547Z,100.00
2023-04-02T03:36:59.508Z,100.00
2023-04-02T03:39:34.401Z,100.00
2023-04-02T03:42:08.622Z,100.00
2023-04-02T03:44:45.466Z,100.00
2023-04-02T03:47:19.190Z,100.00
2023-04-02T03:49:54.871Z,100.00
2023-04-02T03:52:27.111Z,100.00
2023-04-02T03:54:59.880Z,100.00
2023-04-02T03:57:47.724Z,100.00
2023-04-02T04:00:21.469Z,100.00
2023-04-02T04:02:59.967Z,100.00
2023-04-02T04:05:35.814Z,100.00
2023-04-02T04:08:07.549Z,100.00
2023-04-02T04:10:36.320Z,100.00
2023-04-02T04:13:10.332Z,100.00
2023-04-02T04:15:43.485Z,100.00
2023-04-02T04:18:24.079Z,100.00
2023-04-02T04:20:58.314Z,100.00
2023-04-02T04:26:10.457Z,100.00
2023-04-02T04:28:58.225Z,100.00
2023-04-02T04:31:31.205Z,100.00
2023-04-02T04:34:04.420Z,100.00
2023-04-02T04:36:53.947Z,100.00
2023-04-02T04:39:31.780Z,100.00
2023-04-02T04:42:02.393Z,100.00
2023-04-02T04:44:41.135Z,100.00
2023-04-02T04:47:16.558Z,100.00
2023-04-02T04:49:48.270Z,100.00
2023-04-02T04:52:23.175Z,100.00
2023-04-02T04:54:52.031Z,100.00
2023-04-02T04:57:32.393Z,100.00
2023-04-02T05:00:11.137Z,100.00
2023-04-02T05:02:46.127Z,100.00
2023-04-02T05:05:21.103Z,100.00
2023-04-02T05:07:59.053Z,100.00
2023-04-02T05:10:34.256Z,100.00
2023-04-02T05:13:05.663Z,100.00
2023-04-02T05:15:40.091Z,100.00
2023-04-02T05:18:19.026Z,100.00
2023-04-02T05:20:54.021Z,100.00
2023-04-02T05:23:28.084Z,100.00
2023-04-02T05:26:04.952Z,100.00
2023-04-02T05:28:39.971Z,100.00
2023-04-02T05:31:13.474Z,100.00
2023-04-02T05:33:47.556Z,100.00
2023-04-02T05:36:21.599Z,100.00
2023-04-02T05:38:56.252Z,100.00
2023-04-02T05:41:36.828Z,100.00
2023-04-02T05:44:11.814Z,100.00
2023-04-02T05:46:45.235Z,98.19
2023-04-02T05:49:21.445Z,96.35
2023-04-02T05:51:55.873Z,95.39
2023-04-02T05:54:31.492Z,95.10
2023-04-02T05:57:03.768Z,94.25
2023-04-02T05:59:38.359Z,94.00
2023-04-02T06:02:12.832Z,93.76
2023-04-02T06:04:47.564Z,94.78
2023-04-02T06:07:21.499Z,94.48
2023-04-02T06:09:58.108Z,94.25
2023-04-02T06:15:01.941Z,92.43
2023-04-02T06:17:44.274Z,91.05
2023-04-02T06:20:16.484Z,91.41
2023-04-02T06:22:50.513Z,90.48
2023-04-02T06:25:24.990Z,91.77
2023-04-02T06:27:57.988Z,91.47
2023-04-02T06:30:29.320Z,93.11
2023-04-02T06:32:57.810Z,92.86
2023-04-02T06:35:27.045Z,92.31
2023-04-02T06:38:04.742Z,91.95
2023-04-02T06:40:42.583Z,92.62
2023-04-02T06:43:33.414Z,92.26
2023-04-02T06:46:26.918Z,91.87
2023-04-02T06:49:10.735Z,92.32
2023-04-02T06:51:41.815Z,91.21
2023-04-02T06:54:16.058Z,91.57
2023-04-02T06:56:49.687Z,92.57
2023-04-02T06:59:27.294Z,90.34
2023-04-02T07:02:03.418Z,89.03
2023-04-02T07:04:32.121Z,88.43
2023-04-02T07:07:00.473Z,86.86
2023-04-02T07:09:32.875Z,86.02
2023-04-02T07:12:12.485Z,85.23
2023-04-02T07:14:41.140Z,85.00
2023-04-02T07:17:16.788Z,84.44
2023-04-02T07:19:49.372Z,83.42
2023-04-02T07:22:20.759Z,81.00
2023-04-02T07:24:55.451Z,79.81
2023-04-02T07:27:24.775Z,78.60
2023-04-02T07:29:52.675Z,77.75
2023-04-02T07:32:20.756Z,78.84
2023-04-02T07:34:49.002Z,79.93
2023-04-02T07:37:17.093Z,77.44
2023-04-02T07:39:44.972Z,77.17
2023-04-02T07:42:12.994Z,77.79
2023-04-02T07:44:42.246Z,77.46
2023-04-02T07:47:10.598Z,75.55
2023-04-02T07:49:38.717Z,76.46
2023-04-02T07:52:07.278Z,77.12
2023-04-02T07:54:35.741Z,76.92
2023-04-02T07:57:03.804Z,76.39
2023-04-02T07:59:31.777Z,76.17
2023-04-02T08:02:01.122Z,77.30
2023-04-02T08:04:29.108Z,77.34
2023-04-02T08:06:57.176Z,77.89
2023-04-02T08:09:25.136Z,78.55
2023-04-02T08:11:53.105Z,79.81
2023-04-02T08:14:21.029Z,79.11
2023-04-02T08:16:51.007Z,79.08
2023-04-02T08:19:20.833Z,78.09
2023-04-02T08:21:51.480Z,78.14
2023-04-02T08:24:21.578Z,77.25
2023-04-02T08:26:51.409Z,78.06
2023-04-02T08:29:19.345Z,77.39
2023-04-02T08:31:47.435Z,76.07
2023-04-02T08:34:15.443Z,76.38
2023-04-02T08:36:45.468Z,74.79
2023-04-02T08:39:13.850Z,75.36
2023-04-02T08:41:48.703Z,78.01
2023-04-02T08:44:32.391Z,78.00
2023-04-02T08:47:04.394Z,78.60
2023-04-02T08:49:36.288Z,76.60
2023-04-02T08:52:05.666Z,77.67
2023-04-02T08:54:37.907Z,77.88
2023-04-02T08:57:16.609Z,76.35
2023-04-02T08:59:45.907Z,77.52
2023-04-02T09:02:29.948Z,77.73
2023-04-02T09:04:59.966Z,76.49
2023-04-02T09:07:29.690Z,76.51
2023-04-02T09:09:58.149Z,77.04
2023-04-02T09:12:29.523Z,75.69
2023-04-02T09:15:16.226Z,74.00
2023-04-02T09:17:53.556Z,74.11
2023-04-02T09:20:26.153Z,71.80
2023-04-02T09:22:57.684Z,71.28
2023-04-02T09:25:27.903Z,70.84
2023-04-02T09:27:58.858Z,71.47
2023-04-02T09:30:41.896Z,72.79
2023-04-02T09:33:10.164Z,71.42
2023-04-02T09:35:54.299Z,72.90
2023-04-02T09:38:28.082Z,70.90
2023-04-02T09:41:00.601Z,72.44
2023-04-02T09:43:31.297Z,70.22
2023-04-02T09:46:02.029Z,70.30
2023-04-02T09:48:33.493Z,68.05
2023-04-02T09:51:14.580Z,68.89
2023-04-02T09:53:45.886Z,69.42
2023-04-02T09:56:19.802Z,68.91
2023-04-02T09:59:04.771Z,69.36
2023-04-02T10:01:34.838Z,67.29
2023-04-02T10:04:04.809Z,67.97
2023-04-02T10:06:34.319Z,69.18
2023-04-02T10:09:22.125Z,65.86
2023-04-02T10:11:51.836Z,66.35
2023-04-02T10:14:24.698Z,65.80
2023-04-02T10:16:56.614Z,65.31
2023-04-02T10:19:30.673Z,66.54
2023-04-02T10:22:01.428Z,67.26
2023-04-02T10:24:30.716Z,66.61
2023-04-02T10:27:09.747Z,66.70
2023-04-02T10:29:55.758Z,67.91
2023-04-02T10:32:31.045Z,65.65
2023-04-02T10:35:04.067Z,64.97
2023-04-02T10:37:55.996Z,64.89
2023-04-02T10:40:29.603Z,64.09
2023-04-02T10:43:23.693Z,64.52
2023-04-02T10:45:57.702Z,64.18
2023-04-02T10:48:34.960Z,65.31
2023-04-02T10:51:07.800Z,65.19
2023-04-02T10:53:47.426Z,65.42
2023-04-02T10:56:17.067Z,65.52
2023-04-02T10:58:57.460Z,65.73
2023-04-02T11:01:28.007Z,65.33
2023-04-02T11:04:00.446Z,65.25
2023-04-02T11:06:33.893Z,65.98
2023-04-02T11:09:05.879Z,65.92
2023-04-02T11:11:39.637Z,66.60
2023-04-02T11:14:14.769Z,65.31
2023-04-02T11:16:44.764Z,65.24
2023-04-02T11:19:28.749Z,65.51
2023-04-02T11:22:01.328Z,64.57
2023-04-02T11:24:39.682Z,65.68
2023-04-02T11:27:22.365Z,64.93
2023-04-02T11:29:53.482Z,65.39
2023-04-02T11:33:05.766Z,66.07
2023-04-02T11:35:40.796Z,65.78
2023-04-02T11:38:52.476Z,66.92
2023-04-02T11:41:57.872Z,65.06
2023-04-02T11:44:33.299Z,66.00
2023-04-02T11:47:21.609Z,67.61
2023-04-02T11:50:38.699Z,62.85
2023-04-02T11:53:24.819Z,61.53
2023-04-02T11:56:20.980Z,61.86
2023-04-02T11:59:06.116Z,60.00
2023-04-02T12:02:00.661Z,59.05
2023-04-02T12:05:14.479Z,58.69
2023-04-02T12:08:05.728Z,57.81
2023-04-02T12:10:49.966Z,58.65
2023-04-02T12:13:20.995Z,59.73
2023-04-02T12:15:50.325Z,60.80
2023-04-02T12:18:24.190Z,60.66
2023-04-02T12:20:55.085Z,60.58
2023-04-02T12:23:29.143Z,60.68
2023-04-02T12:26:02.085Z,60.13
2023-04-02T12:28:33.727Z,60.72
2023-04-02T12:31:12.562Z,60.49
2023-04-02T12:33:43.664Z,59.11
2023-04-02T12:36:20.710Z,54.59
2023-04-02T12:38:51.157Z,55.05
2023-04-02T12:41:24.982Z,56.51
2023-04-02T12:44:00.329Z,52.98
2023-04-02T12:46:29.301Z,53.42
2023-04-02T12:49:04.918Z,53.62
2023-04-02T12:51:33.195Z,56.09
2023-04-02T12:54:01.158Z,56.68
2023-04-02T12:56:29.068Z,56.54
2023-04-02T12:58:58.571Z,56.17
2023-04-02T13:01:29.286Z,55.63
2023-04-02T13:04:06.569Z,48.12
2023-04-02T13:06:35.221Z,44.22
2023-04-02T13:09:06.535Z,43.13
2023-04-02T13:11:36.798Z,44.43
2023-04-02T13:14:07.439Z,47.82
2023-04-02T13:16:37.513Z,48.71
2023-04-02T13:19:29.723Z,47.31
2023-04-02T13:21:59.673Z,46.68
2023-04-02T13:24:29.195Z,46.90
2023-04-02T13:26:59.125Z,47.33
2023-04-02T13:29:29.516Z,49.42
2023-04-02T13:32:01.101Z,50.68
2023-04-02T13:34:31.001Z,51.98
2023-04-02T13:36:59.690Z,52.96
2023-04-02T13:39:30.096Z,53.50
2023-04-02T13:41:59.843Z,54.75
2023-04-02T13:44:30.326Z,52.35
2023-04-02T13:47:02.079Z,50.69
2023-04-02T13:49:32.415Z,50.86
2023-04-02T13:52:05.259Z,52.89
2023-04-02T13:54:44.735Z,54.07
2023-04-02T13:57:12.769Z,53.39
2023-04-02T13:59:40.698Z,50.97
2023-04-02T14:02:12.764Z,50.17
2023-04-02T14:04:47.060Z,50.00
2023-04-02T14:07:41.316Z,50.06
2023-04-02T14:10:23.554Z,49.58
2023-04-02T14:13:09.785Z,48.35
2023-04-02T14:15:48.992Z,48.83
2023-04-02T14:18:39.444Z,49.66
2023-04-02T14:21:18.008Z,51.89
2023-04-02T14:23:57.701Z,52.26
2023-04-02T14:26:32.940Z,50.45
2023-04-02T14:29:07.855Z,50.73
2023-04-02T14:31:39.890Z,50.57
2023-04-02T14:34:16.108Z,51.13
2023-04-02T14:36:57.661Z,51.12
2023-04-02T14:39:33.390Z,51.77
2023-04-02T14:42:05.739Z,52.70
2023-04-02T14:44:40.936Z,53.19
2023-04-02T14:47:18.461Z,53.94
2023-04-02T14:49:50.451Z,53.40
2023-04-02T14:52:23.851Z,53.05
2023-04-02T14:54:55.572Z,53.52
2023-04-02T14:57:26.448Z,54.75
2023-04-02T15:00:03.419Z,54.00
2023-04-02T15:02:42.120Z,53.81
2023-04-02T15:05:18.370Z,54.42
2023-04-02T15:07:51.782Z,55.16
2023-04-02T15:10:26.169Z,54.84
2023-04-02T15:12:56.207Z,54.54
2023-04-02T15:15:40.478Z,54.55
2023-04-02T15:18:14.103Z,55.45
2023-04-02T15:20:52.351Z,55.61
2023-04-02T15:23:30.996Z,56.97
2023-04-02T15:26:08.464Z,55.55
2023-04-02T15:28:42.594Z,54.83
2023-04-02T15:31:15.369Z,54.86
2023-04-02T15:33:45.639Z,55.69
2023-04-02T15:36:42.646Z,56.36
2023-04-02T15:39:30.448Z,56.06
2023-04-02T15:42:09.278Z,55.64
2023-04-02T15:44:45.486Z,55.68
2023-04-02T15:47:23.080Z,55.57
2023-04-02T15:49:59.663Z,54.80
2023-04-02T15:52:37.121Z,54.88
2023-04-02T15:55:20.034Z,55.43
2023-04-02T15:58:02.713Z,55.45
2023-04-02T16:00:32.614Z,55.16
2023-04-02T16:03:20.449Z,55.10
2023-04-02T16:06:01.088Z,53.55
2023-04-02T16:08:41.973Z,53.25
2023-04-02T16:11:14.482Z,53.83
2023-04-02T16:13:43.972Z,53.85
2023-04-02T16:16:17.481Z,54.73
2023-04-02T16:18:56.649Z,55.37
2023-04-02T16:21:28.504Z,56.07
2023-04-02T16:23:56.573Z,55.79
2023-04-02T16:26:44.068Z,56.74
2023-04-02T16:29:33.514Z,56.40
2023-04-02T16:32:12.741Z,55.73
2023-04-02T16:34:47.727Z,57.33
2023-04-02T16:37:27.683Z,57.55
2023-04-02T16:40:02.443Z,58.12
2023-04-02T16:42:43.390Z,58.68
2023-04-02T16:45:29.733Z,59.11
2023-04-02T16:48:13.164Z,59.12
2023-04-02T16:50:48.685Z,59.33
2023-04-02T16:53:32.246Z,58.59
2023-04-02T16:56:29.043Z,58.83
2023-04-02T16:59:09.598Z,58.80
2023-04-02T17:01:47.491Z,59.83
2023-04-02T17:04:54.625Z,59.85
2023-04-02T17:07:34.428Z,60.33
2023-04-02T17:10:29.960Z,60.51
2023-04-02T17:13:04.037Z,61.20
2023-04-02T17:15:38.952Z,61.83
2023-04-02T17:18:16.354Z,62.97
2023-04-02T17:20:44.880Z,62.61
2023-04-02T17:23:14.717Z,63.02
2023-04-02T17:25:49.221Z,63.48
2023-04-02T17:28:24.835Z,64.19
2023-04-02T17:30:57.185Z,64.36
2023-04-02T17:33:27.330Z,65.03
2023-04-02T17:36:17.633Z,66.14
2023-04-02T17:38:52.085Z,67.10
2023-04-02T17:41:24.526Z,66.85
2023-04-02T17:43:59.053Z,68.35
2023-04-02T17:46:35.720Z,68.35
2023-04-02T17:49:12.816Z,68.24
2023-04-02T17:51:47.691Z,68.91
2023-04-02T17:54:30.648Z,69.07
2023-04-02T17:57:18.975Z,70.46
2023-04-02T18:00:00.250Z,71.57
2023-04-02T18:02:55.161Z,71.54
2023-04-02T18:05:30.749Z,72.15
2023-04-02T18:08:12.383Z,73.52
2023-04-02T18:10:47.827Z,72.72
2023-04-02T18:13:28.726Z,73.71
2023-04-02T18:16:10.567Z,73.91
2023-04-02T18:18:55.832Z,74.77
2023-04-02T18:21:29.653Z,75.56
2023-04-02T18:24:15.065Z,75.72
2023-04-02T18:26:53.711Z,76.09
2023-04-02T18:29:32.921Z,76.44
2023-04-02T18:32:31.954Z,76.82
2023-04-02T18:35:13.070Z,78.00
2023-04-02T18:37:54.329Z,78.54
2023-04-02T18:40:36.158Z,80.18
2023-04-02T18:43:16.844Z,79.81
2023-04-02T18:45:54.489Z,80.37
2023-04-02T18:48:32.583Z,79.75
2023-04-02T18:51:04.303Z,80.26
2023-04-02T18:53:34.519Z,80.31
2023-04-02T18:56:05.793Z,81.69
2023-04-02T18:58:41.814Z,82.63
2023-04-02T19:01:14.118Z,82.33
2023-04-02T19:03:47.632Z,82.26
2023-04-02T19:06:20.164Z,83.56
2023-04-02T19:08:52.179Z,83.75
2023-04-02T19:11:28.512Z,84.23
2023-04-02T19:13:58.889Z,84.65
2023-04-02T19:16:45.122Z,84.53
2023-04-02T19:19:18.633Z,84.16
2023-04-02T19:22:18.992Z,84.87
2023-04-02T19:25:03.156Z,85.20
2023-04-02T19:27:38.006Z,85.85
2023-04-02T19:30:27.849Z,84.70
2023-04-02T19:33:08.494Z,86.61
2023-04-02T19:35:42.728Z,85.37
2023-04-02T19:38:29.618Z,85.83
2023-04-02T19:41:06.118Z,84.78
2023-04-02T19:43:34.456Z,84.86
2023-04-02T19:46:03.595Z,84.49
2023-04-02T19:48:42.020Z,85.15
2023-04-02T19:51:10.588Z,85.02
2023-04-02T19:53:40.323Z,85.50
2023-04-02T19:56:08.368Z,86.14
2023-04-02T19:58:37.455Z,85.42
2023-04-02T20:01:05.753Z,86.07
2023-04-02T20:03:34.070Z,86.10
2023-04-02T20:06:02.345Z,86.07
2023-04-02T20:08:30.952Z,85.36
2023-04-02T20:11:03.389Z,86.18
2023-04-02T20:13:31.737Z,85.63
2023-04-02T20:16:01.781Z,85.89
2023-04-02T20:18:30.597Z,85.74
2023-04-02T20:21:04.166Z,86.44
2023-04-02T20:23:34.698Z,84.92
2023-04-02T20:26:05.342Z,85.85
2023-04-02T20:28:33.996Z,86.71
2023-04-02T20:31:13.266Z,86.71
2023-04-02T20:33:42.089Z,86.42
2023-04-02T20:36:11.867Z,86.12
2023-04-02T20:38:40.490Z,87.09
2023-04-02T20:41:10.935Z,86.16
2023-04-02T20:43:40.541Z,85.80
2023-04-02T20:46:10.860Z,85.00
2023-04-02T20:48:40.782Z,86.34
2023-04-02T20:51:11.269Z,86.88
2023-04-02T20:53:39.703Z,85.98
2023-04-02T20:56:08.961Z,85.54
2023-04-02T20:58:39.482Z,86.20
2023-04-02T21:01:09.646Z,85.49
2023-04-02T21:03:37.809Z,86.04
2023-04-02T21:06:06.850Z,86.40
2023-04-02T21:08:39.915Z,86.16
2023-04-02T21:11:08.452Z,86.46
2023-04-02T21:13:38.380Z,87.29
2023-04-02T21:16:13.043Z,86.97
2023-04-02T21:18:40.783Z,86.92
2023-04-02T21:21:09.745Z,87.41
2023-04-02T21:23:37.633Z,87.51
2023-04-02T21:26:07.430Z,87.71
2023-04-02T21:28:38.016Z,87.36
2023-04-02T21:31:10.548Z,87.28
2023-04-02T21:33:40.873Z,87.94
2023-04-02T21:36:10.389Z,87.74
2023-04-02T21:38:42.221Z,88.38
2023-04-02T21:41:18.152Z,88.58
2023-04-02T21:43:48.291Z,88.62
2023-04-02T21:46:21.583Z,88.96
2023-04-02T21:48:50.747Z,89.68
2023-04-02T21:51:22.043Z,90.77
2023-04-02T21:53:50.764Z,90.36
2023-04-02T21:56:19.962Z,90.48
2023-04-02T21:58:48.401Z,90.49
2023-04-02T22:01:26.616Z,90.05
2023-04-02T22:03:55.129Z,90.97
2023-04-02T22:06:24.740Z,91.06
2023-04-02T22:08:55.346Z,91.56
2023-04-02T22:11:25.952Z,91.72
2023-04-02T22:13:54.637Z,91.17
2023-04-02T22:16:25.803Z,90.96
2023-04-02T22:18:55.530Z,91.18
2023-04-02T22:21:23.840Z,90.97
2023-04-02T22:23:52.074Z,91.21
2023-04-02T22:26:22.795Z,91.45
2023-04-02T22:28:52.345Z,91.56
2023-04-02T22:31:23.910Z,92.15
2023-04-02T22:33:52.968Z,92.47
2023-04-02T22:36:22.144Z,91.27
2023-04-02T22:38:50.934Z,91.38
2023-04-02T22:41:21.497Z,92.41
2023-04-02T22:43:50.240Z,92.23
2023-04-02T22:46:19.524Z,92.56
2023-04-02T22:48:49.813Z,92.89
2023-04-02T22:51:20.188Z,93.08
2023-04-02T22:53:49.076Z,92.77
2023-04-02T22:56:19.640Z,92.98
2023-04-02T22:58:47.698Z,93.31
2023-04-02T23:01:17.825Z,92.99
2023-04-02T23:03:45.894Z,92.98
2023-04-02T23:06:17.516Z,94.13
2023-04-02T23:08:46.077Z,93.97
2023-04-02T23:11:16.375Z,94.95
2023-04-02T23:13:45.606Z,93.43
2023-04-02T23:16:15.097Z,93.75
2023-04-02T23:18:45.694Z,94.25
2023-04-02T23:21:16.262Z,94.55
2023-04-02T23:23:45.350Z,94.07
2023-04-02T23:26:15.384Z,93.93
2023-04-02T23:28:43.710Z,93.99
2023-04-02T23:31:14.490Z,94.51
2023-04-02T23:33:42.914Z,93.67
2023-04-02T23:36:12.346Z,94.44
2023-04-02T23:38:41.659Z,93.64
2023-04-02T23:41:14.322Z,93.13
2023-04-02T23:43:42.337Z,92.64
2023-04-02T23:46:10.886Z,93.37
2023-04-02T23:48:38.928Z,93.81
2023-04-02T23:51:07.387Z,94.21
2023-04-02T23:53:35.983Z,93.62
2023-04-02T23:56:06.024Z,94.71
2023-04-02T23:58:33.956Z,94.60
